Russell, North Dakota
Current Conditions -  °F | °C
As of 2:58 AM on Sunday 21 Dec 2014 (Local Time) from KMIB Reporting Station
Clear Clear  
Wind Chill: -8°   Ceiling: Unl
Heat Index: -8°   Visibility: 10mi
Dew Point: -8°   Wind: 3mph
Humidity: 99%   Direction: 230°SW
Pressure: 29.65"   Gusts: NA
Location:  48.6879°N, 101.011°W
Report Text: KMIB 210858Z AUTO 23003KT 10SM CLR M08/M08 A2965 RMK AO2 SLP073 T10771078 57016 $
Loading
Personal Weather Stations






























Interactive Weather Map New forecast layout! Learn more

10-Day Weather Forecast

Advertisements
Track Severe Weather on mobile